sensor_id;sensor_type;location;lat;lon;timestamp;pressure;altitude;pressure_sealevel;temperature;humidity
21902;BME280;11115;46.038;14.612;2022-08-21T00:02:24;98122.53;;;18.05;100.00
21902;BME280;11115;46.038;14.612;2022-08-21T00:05:38;98125.97;;;17.79;100.00
21902;BME280;11115;46.038;14.612;2022-08-21T00:08:25;98126.44;;;17.66;100.00
21902;BME280;11115;46.038;14.612;2022-08-21T00:11:13;98131.59;;;17.79;100.00
21902;BME280;11115;46.038;14.612;2022-08-21T00:14:07;98129.66;;;17.83;100.00
21902;BME280;11115;46.038;14.612;2022-08-21T00:17:01;98122.81;;;17.81;100.00
21902;BME280;11115;46.038;14.612;2022-08-21T00:19:55;98128.22;;;17.74;100.00
21902;BME280;11115;46.038;14.612;2022-08-21T00:22:44;98131.31;;;17.69;100.00
21902;BME280;11115;46.038;14.612;2022-08-21T00:25:34;98133.34;;;17.87;100.00
21902;BME280;11115;46.038;14.612;2022-08-21T00:28:23;98107.66;;;17.66;100.00
21902;BME280;11115;46.038;14.612;2022-08-21T00:31:09;98121.94;;;17.77;100.00
21902;BME280;11115;46.038;14.612;2022-08-21T00:33:59;98107.25;;;17.48;100.00
21902;BME280;11115;46.038;14.612;2022-08-21T00:36:45;98125.19;;;17.79;100.00
21902;BME280;11115;46.038;14.612;2022-08-21T00:39:33;98125.19;;;17.79;100.00
21902;BME280;11115;46.038;14.612;2022-08-21T00:42:20;98119.94;;;17.62;100.00
21902;BME280;11115;46.038;14.612;2022-08-21T00:45:10;98121.19;;;17.80;100.00
21902;BME280;11115;46.038;14.612;2022-08-21T00:48:00;98115.25;;;17.66;100.00
21902;BME280;11115;46.038;14.612;2022-08-21T00:51:19;98113.53;;;17.61;100.00
21902;BME280;11115;46.038;14.612;2022-08-21T00:54:09;98119.22;;;17.80;100.00
21902;BME280;11115;46.038;14.612;2022-08-21T00:57:07;98115.09;;;17.58;100.00
21902;BME280;11115;46.038;14.612;2022-08-21T01:00:01;98101.34;;;17.53;100.00
21902;BME280;11115;46.038;14.612;2022-08-21T01:02:50;98113.44;;;17.73;100.00
21902;BME280;11115;46.038;14.612;2022-08-21T01:05:51;98104.22;;;17.73;100.00
21902;BME280;11115;46.038;14.612;2022-08-21T01:08:38;98116.28;;;17.42;100.00
21902;BME280;11115;46.038;14.612;2022-08-21T01:11:28;98112.28;;;17.58;100.00
21902;BME280;11115;46.038;14.612;2022-08-21T01:14:15;98099.13;;;17.59;100.00
21902;BME280;11115;46.038;14.612;2022-08-21T01:17:19;98110.03;;;17.48;100.00
21902;BME280;11115;46.038;14.612;2022-08-21T01:20:10;98117.31;;;17.53;100.00
21902;BME280;11115;46.038;14.612;2022-08-21T01:22:57;98120.41;;;17.48;100.00
21902;BME280;11115;46.038;14.612;2022-08-21T01:25:46;98106.81;;;17.46;100.00
21902;BME280;11115;46.038;14.612;2022-08-21T01:28:36;98090.03;;;17.46;100.00
21902;BME280;11115;46.038;14.612;2022-08-21T01:31:24;98094.88;;;17.49;100.00
21902;BME280;11115;46.038;14.612;2022-08-21T01:34:21;98089.28;;;17.49;100.00
21902;BME280;11115;46.038;14.612;2022-08-21T01:37:11;98083.81;;;17.37;100.00
21902;BME280;11115;46.038;14.612;2022-08-21T01:39:59;98076.63;;;17.20;100.00
21902;BME280;11115;46.038;14.612;2022-08-21T01:42:49;98098.44;;;17.30;100.00
21902;BME280;11115;46.038;14.612;2022-08-21T01:45:40;98086.25;;;17.39;100.00
21902;BME280;11115;46.038;14.612;2022-08-21T01:48:29;98082.06;;;17.48;100.00
21902;BME280;11115;46.038;14.612;2022-08-21T01:51:16;98065.59;;;17.43;100.00
21902;BME280;11115;46.038;14.612;2022-08-21T01:54:05;98073.81;;;17.36;100.00
21902;BME280;11115;46.038;14.612;2022-08-21T01:56:55;98069.06;;;17.21;100.00
21902;BME280;11115;46.038;14.612;2022-08-21T01:59:44;98067.69;;;17.15;100.00
21902;BME280;11115;46.038;14.612;2022-08-21T02:02:39;98049.16;;;17.07;100.00
21902;BME280;11115;46.038;14.612;2022-08-21T02:05:29;98076.72;;;17.24;100.00
21902;BME280;11115;46.038;14.612;2022-08-21T02:08:18;98069.50;;;17.07;100.00
21902;BME280;11115;46.038;14.612;2022-08-21T02:11:08;98060.84;;;16.96;100.00
21902;BME280;11115;46.038;14.612;2022-08-21T02:13:58;98060.25;;;16.87;100.00
21902;BME280;11115;46.038;14.612;2022-08-21T02:16:47;98073.75;;;17.17;100.00
21902;BME280;11115;46.038;14.612;2022-08-21T02:19:34;98075.31;;;16.98;100.00
21902;BME280;11115;46.038;14.612;2022-08-21T02:22:20;98080.22;;;16.74;100.00
21902;BME280;11115;46.038;14.612;2022-08-21T02:25:09;98073.84;;;16.73;100.00
21902;BME280;11115;46.038;14.612;2022-08-21T02:27:56;98070.59;;;16.71;100.00
21902;BME280;11115;46.038;14.612;2022-08-21T02:30:47;98065.53;;;16.61;100.00
21902;BME280;11115;46.038;14.612;2022-08-21T02:33:44;98068.16;;;16.69;100.00
21902;BME280;11115;46.038;14.612;2022-08-21T02:36:33;98076.47;;;16.54;100.00
21902;BME280;11115;46.038;14.612;2022-08-21T02:39:19;98078.91;;;16.55;100.00
21902;BME280;11115;46.038;14.612;2022-08-21T02:42:09;98069.78;;;16.71;100.00
21902;BME280;11115;46.038;14.612;2022-08-21T02:44:58;98065.22;;;16.78;100.00
21902;BME280;11115;46.038;14.612;2022-08-21T02:47:59;98073.38;;;16.71;100.00
21902;BME280;11115;46.038;14.612;2022-08-21T02:51:02;98071.88;;;16.89;100.00
21902;BME280;11115;46.038;14.612;2022-08-21T02:53:52;98066.28;;;16.89;100.00
21902;BME280;11115;46.038;14.612;2022-08-21T02:56:39;98048.91;;;16.80;100.00
21902;BME280;11115;46.038;14.612;2022-08-21T02:59:26;98055.66;;;16.79;100.00
21902;BME280;11115;46.038;14.612;2022-08-21T03:02:12;98053.28;;;16.65;100.00
21902;BME280;11115;46.038;14.612;2022-08-21T03:05:04;98069.72;;;16.98;100.00
21902;BME280;11115;46.038;14.612;2022-08-21T03:07:54;98070.97;;;16.85;100.00
21902;BME280;11115;46.038;14.612;2022-08-21T03:10:47;98068.97;;;16.86;100.00
21902;BME280;11115;46.038;14.612;2022-08-21T03:13:36;98043.88;;;16.58;100.00
21902;BME280;11115;46.038;14.612;2022-08-21T03:16:24;98067.53;;;16.92;100.00
21902;BME280;11115;46.038;14.612;2022-08-21T03:19:13;98060.84;;;17.12;100.00
21902;BME280;11115;46.038;14.612;2022-08-21T03:22:01;98064.44;;;17.13;100.00
21902;BME280;11115;46.038;14.612;2022-08-21T03:24:51;98059.97;;;16.92;100.00
21902;BME280;11115;46.038;14.612;2022-08-21T03:27:40;98054.66;;;16.87;100.00
21902;BME280;11115;46.038;14.612;2022-08-21T03:30:29;98048.91;;;16.80;100.00
21902;BME280;11115;46.038;14.612;2022-08-21T03:33:25;98055.09;;;16.74;100.00
21902;BME280;11115;46.038;14.612;2022-08-21T03:36:15;98048.19;;;16.55;100.00
21902;BME280;11115;46.038;14.612;2022-08-21T03:39:02;98054.88;;;16.51;100.00
21902;BME280;11115;46.038;14.612;2022-08-21T03:42:12;98062.88;;;16.52;100.00
21902;BME280;11115;46.038;14.612;2022-08-21T03:45:02;98067.88;;;16.75;100.00
21902;BME280;11115;46.038;14.612;2022-08-21T03:48:01;98053.84;;;16.71;100.00
21902;BME280;11115;46.038;14.612;2022-08-21T03:50:52;98060.91;;;16.53;100.00
21902;BME280;11115;46.038;14.612;2022-08-21T03:53:38;98069.78;;;16.71;100.00
21902;BME280;11115;46.038;14.612;2022-08-21T03:56:24;98067.88;;;16.75;100.00
21902;BME280;11115;46.038;14.612;2022-08-21T03:59:10;98068.44;;;16.80;100.00
21902;BME280;11115;46.038;14.612;2022-08-21T04:02:00;98064.13;;;16.83;100.00
21902;BME280;11115;46.038;14.612;2022-08-21T04:04:47;98064.56;;;16.85;100.00
21902;BME280;11115;46.038;14.612;2022-08-21T04:07:36;98061.78;;;16.85;100.00
21902;BME280;11115;46.038;14.612;2022-08-21T04:10:24;98067.00;;;16.86;100.00
21902;BME280;11115;46.038;14.612;2022-08-21T04:13:10;98076.63;;;16.73;100.00
21902;BME280;11115;46.038;14.612;2022-08-21T04:15:56;98057.38;;;16.56;100.00
21902;BME280;11115;46.038;14.612;2022-08-21T04:18:43;98079.94;;;16.63;100.00
21902;BME280;11115;46.038;14.612;2022-08-21T04:21:36;98069.63;;;16.51;100.00
21902;BME280;11115;46.038;14.612;2022-08-21T04:24:26;98089.88;;;16.76;100.00
21902;BME280;11115;46.038;14.612;2022-08-21T04:27:17;98080.16;;;16.86;100.00
21902;BME280;11115;46.038;14.612;2022-08-21T04:30:07;98086.38;;;16.95;100.00
21902;BME280;11115;46.038;14.612;2022-08-21T04:32:57;98091.41;;;16.89;100.00
21902;BME280;11115;46.038;14.612;2022-08-21T04:35:44;98099.88;;;16.77;100.00
21902;BME280;11115;46.038;14.612;2022-08-21T04:38:31;98104.75;;;16.80;100.00
21902;BME280;11115;46.038;14.612;2022-08-21T04:41:17;98110.81;;;16.82;100.00
21902;BME280;11115;46.038;14.612;2022-08-21T04:44:05;98104.94;;;16.87;100.00
21902;BME280;11115;46.038;14.612;2022-08-21T04:46:55;98093.16;;;16.78;100.00
21902;BME280;11115;46.038;14.612;2022-08-21T04:49:44;98123.41;;;17.08;100.00
21902;BME280;11115;46.038;14.612;2022-08-21T04:52:31;98111.78;;;17.06;100.00
21902;BME280;11115;46.038;14.612;2022-08-21T04:55:20;98103.06;;;17.07;100.00
21902;BME280;11115;46.038;14.612;2022-08-21T04:58:12;98105.03;;;17.07;100.00
21902;BME280;11115;46.038;14.612;2022-08-21T05:01:02;98104.38;;;17.13;100.00
21902;BME280;11115;46.038;14.612;2022-08-21T05:04:04;98105.56;;;17.28;100.00
21902;BME280;11115;46.038;14.612;2022-08-21T05:06:56;98098.34;;;17.27;100.00
21902;BME280;11115;46.038;14.612;2022-08-21T05:09:49;98118.06;;;17.34;100.00
21902;BME280;11115;46.038;14.612;2022-08-21T05:12:41;98121.50;;;17.43;100.00
21902;BME280;11115;46.038;14.612;2022-08-21T05:15:31;98118.50;;;17.52;100.00
21902;BME280;11115;46.038;14.612;2022-08-21T05:18:21;98099.28;;;17.50;100.00
21902;BME280;11115;46.038;14.612;2022-08-21T05:21:10;98117.22;;;17.65;100.00
21902;BME280;11115;46.038;14.612;2022-08-21T05:24:00;98125.91;;;17.76;100.00
21902;BME280;11115;46.038;14.612;2022-08-21T05:26:49;98129.06;;;17.74;100.00
21902;BME280;11115;46.038;14.612;2022-08-21T05:29:38;98118.41;;;17.64;100.00
21902;BME280;11115;46.038;14.612;2022-08-21T05:32:28;98116.84;;;17.82;100.00
21902;BME280;11115;46.038;14.612;2022-08-21T05:35:17;98121.34;;;17.87;100.00
21902;BME280;11115;46.038;14.612;2022-08-21T05:38:05;98117.31;;;18.04;100.00
21902;BME280;11115;46.038;14.612;2022-08-21T05:40:52;98116.22;;;18.08;100.00
21902;BME280;11115;46.038;14.612;2022-08-21T05:43:41;98114.00;;;17.98;100.00
21902;BME280;11115;46.038;14.612;2022-08-21T05:46:30;98115.47;;;18.11;100.00
21902;BME280;11115;46.038;14.612;2022-08-21T05:49:21;98114.97;;;18.25;100.00
21902;BME280;11115;46.038;14.612;2022-08-21T05:52:09;98123.53;;;18.32;100.00
21902;BME280;11115;46.038;14.612;2022-08-21T05:54:56;98120.00;;;18.35;100.00
21902;BME280;11115;46.038;14.612;2022-08-21T05:57:42;98096.56;;;18.24;100.00
21902;BME280;11115;46.038;14.612;2022-08-21T06:00:28;98118.38;;;18.34;100.00
21902;BME280;11115;46.038;14.612;2022-08-21T06:03:24;98118.19;;;18.27;100.00
21902;BME280;11115;46.038;14.612;2022-08-21T06:06:10;98118.63;;;18.48;100.00
21902;BME280;11115;46.038;14.612;2022-08-21T06:08:56;98115.63;;;18.57;100.00
21902;BME280;11115;46.038;14.612;2022-08-21T06:11:45;98116.44;;;18.58;100.00
21902;BME280;11115;46.038;14.612;2022-08-21T06:14:32;98122.03;;;18.58;100.00
21902;BME280;11115;46.038;14.612;2022-08-21T06:17:22;98117.97;;;18.55;100.00
21902;BME280;11115;46.038;14.612;2022-08-21T06:20:12;98094.97;;;18.46;100.00
21902;BME280;11115;46.038;14.612;2022-08-21T06:23:03;98102.06;;;18.59;100.00
21902;BME280;11115;46.038;14.612;2022-08-21T06:25:52;98109.41;;;18.67;100.00
21902;BME280;11115;46.038;14.612;2022-08-21T06:28:40;98122.19;;;18.65;100.00
21902;BME280;11115;46.038;14.612;2022-08-21T06:31:27;98115.47;;;18.69;100.00
21902;BME280;11115;46.038;14.612;2022-08-21T06:34:24;98104.78;;;18.75;100.00
21902;BME280;11115;46.038;14.612;2022-08-21T06:37:13;98111.38;;;18.86;100.00
21902;BME280;11115;46.038;14.612;2022-08-21T06:40:04;98098.31;;;18.71;100.00
21902;BME280;11115;46.038;14.612;2022-08-21T06:42:53;98110.84;;;19.00;100.00
21902;BME280;11115;46.038;14.612;2022-08-21T06:45:40;98107.09;;;19.15;100.00
21902;BME280;11115;46.038;14.612;2022-08-21T06:48:27;98108.06;;;19.26;100.00
21902;BME280;11115;46.038;14.612;2022-08-21T06:51:18;98108.63;;;19.35;100.00
21902;BME280;11115;46.038;14.612;2022-08-21T06:54:08;98100.44;;;19.50;100.00
21902;BME280;11115;46.038;14.612;2022-08-21T06:56:57;98110.19;;;19.56;100.00
21902;BME280;11115;46.038;14.612;2022-08-21T06:59:47;98106.28;;;19.64;100.00
21902;BME280;11115;46.038;14.612;2022-08-21T07:02:38;98108.03;;;19.72;100.00
21902;BME280;11115;46.038;14.612;2022-08-21T07:05:26;98092.25;;;19.64;100.00
21902;BME280;11115;46.038;14.612;2022-08-21T07:08:13;98091.78;;;19.58;100.00
21902;BME280;11115;46.038;14.612;2022-08-21T07:11:04;98099.44;;;19.61;100.00
21902;BME280;11115;46.038;14.612;2022-08-21T07:13:55;98091.16;;;19.68;100.00
21902;BME280;11115;46.038;14.612;2022-08-21T07:16:42;98092.03;;;19.76;100.00
21902;BME280;11115;46.038;14.612;2022-08-21T07:19:40;98090.81;;;20.04;100.00
21902;BME280;11115;46.038;14.612;2022-08-21T07:22:28;98098.59;;;20.17;100.00
21902;BME280;11115;46.038;14.612;2022-08-21T07:25:22;98088.16;;;20.14;100.00
21902;BME280;11115;46.038;14.612;2022-08-21T07:28:12;98104.81;;;20.30;100.00
21902;BME280;11115;46.038;14.612;2022-08-21T07:31:00;98085.00;;;20.19;100.00
21902;BME280;11115;46.038;14.612;2022-08-21T07:33:50;98097.81;;;20.47;100.00
21902;BME280;11115;46.038;14.612;2022-08-21T07:36:39;98099.72;;;20.76;100.00
21902;BME280;11115;46.038;14.612;2022-08-21T07:39:25;98084.28;;;20.59;100.00
21902;BME280;11115;46.038;14.612;2022-08-21T07:42:15;98103.63;;;21.02;100.00
21902;BME280;11115;46.038;14.612;2022-08-21T07:45:10;98098.38;;;21.44;100.00
21902;BME280;11115;46.038;14.612;2022-08-21T07:47:58;98082.38;;;21.08;100.00
21902;BME280;11115;46.038;14.612;2022-08-21T07:50:45;98076.53;;;21.27;100.00
21902;BME280;11115;46.038;14.612;2022-08-21T07:53:33;98070.56;;;21.36;100.00
21902;BME280;11115;46.038;14.612;2022-08-21T07:56:24;98071.50;;;21.54;100.00
21902;BME280;11115;46.038;14.612;2022-08-21T07:59:13;98074.66;;;21.42;100.00
21902;BME280;11115;46.038;14.612;2022-08-21T08:02:25;98075.13;;;21.55;100.00
21902;BME280;11115;46.038;14.612;2022-08-21T08:05:13;98070.78;;;21.64;100.00
21902;BME280;11115;46.038;14.612;2022-08-21T08:07:58;98072.91;;;21.89;100.00
21902;BME280;11115;46.038;14.612;2022-08-21T08:10:45;98060.38;;;21.75;100.00
21902;BME280;11115;46.038;14.612;2022-08-21T08:13:50;98058.16;;;22.09;100.00
21902;BME280;11115;46.038;14.612;2022-08-21T08:16:37;98054.63;;;22.30;100.00
21902;BME280;11115;46.038;14.612;2022-08-21T08:19:28;98066.28;;;22.25;100.00
21902;BME280;11115;46.038;14.612;2022-08-21T08:22:25;98062.34;;;22.48;100.00
21902;BME280;11115;46.038;14.612;2022-08-21T08:25:15;98054.31;;;22.64;100.00
21902;BME280;11115;46.038;14.612;2022-08-21T08:28:07;98058.00;;;22.79;100.00
21902;BME280;11115;46.038;14.612;2022-08-21T08:30:59;98056.03;;;23.00;100.00
21902;BME280;11115;46.038;14.612;2022-08-21T08:33:47;98056.41;;;23.13;100.00
21902;BME280;11115;46.038;14.612;2022-08-21T08:36:37;98058.44;;;23.23;100.00
21902;BME280;11115;46.038;14.612;2022-08-21T08:39:25;98061.66;;;23.08;100.00
21902;BME280;11115;46.038;14.612;2022-08-21T08:42:47;98074.97;;;22.96;100.00
21902;BME280;11115;46.038;14.612;2022-08-21T08:45:38;98070.13;;;23.08;100.00
21902;BME280;11115;46.038;14.612;2022-08-21T08:52:21;98058.44;;;23.06;100.00
21902;BME280;11115;46.038;14.612;2022-08-21T08:55:18;98057.66;;;23.19;100.00
21902;BME280;11115;46.038;14.612;2022-08-21T08:58:38;98052.81;;;23.34;100.00
21902;BME280;11115;46.038;14.612;2022-08-21T09:01:27;98049.56;;;23.46;100.00
21902;BME280;11115;46.038;14.612;2022-08-21T09:04:28;98051.16;;;23.51;100.00
21902;BME280;11115;46.038;14.612;2022-08-21T09:07:40;98058.41;;;23.77;100.00
21902;BME280;11115;46.038;14.612;2022-08-21T09:10:39;98061.66;;;23.68;100.00
21902;BME280;11115;46.038;14.612;2022-08-21T09:24:09;98036.22;;;23.68;100.00
21902;BME280;11115;46.038;14.612;2022-08-21T09:27:12;98040.25;;;23.81;100.00
21902;BME280;11115;46.038;14.612;2022-08-21T09:29:58;98028.94;;;23.85;100.00
21902;BME280;11115;46.038;14.612;2022-08-21T09:35:54;98027.94;;;24.38;100.00
21902;BME280;11115;46.038;14.612;2022-08-21T09:38:53;98031.38;;;24.74;100.00
21902;BME280;11115;46.038;14.612;2022-08-21T09:41:42;98025.53;;;24.99;100.00
21902;BME280;11115;46.038;14.612;2022-08-21T09:45:04;98022.16;;;25.18;100.00
21902;BME280;11115;46.038;14.612;2022-08-21T09:47:53;98008.81;;;25.19;100.00
21902;BME280;11115;46.038;14.612;2022-08-21T09:50:42;98023.94;;;25.84;100.00
21902;BME280;11115;46.038;14.612;2022-08-21T09:53:30;98026.47;;;26.12;100.00
21902;BME280;11115;46.038;14.612;2022-08-21T09:56:36;98021.38;;;25.96;100.00
21902;BME280;11115;46.038;14.612;2022-08-21T09:59:52;98011.22;;;26.33;100.00
21902;BME280;11115;46.038;14.612;2022-08-21T10:02:40;98007.91;;;26.38;100.00
21902;BME280;11115;46.038;14.612;2022-08-21T10:05:31;97997.94;;;26.26;100.00
21902;BME280;11115;46.038;14.612;2022-08-21T10:08:25;98001.06;;;26.66;100.00
21902;BME280;11115;46.038;14.612;2022-08-21T10:11:16;97995.66;;;27.02;100.00
21902;BME280;11115;46.038;14.612;2022-08-21T10:17:28;97996.06;;;26.47;100.00
21902;BME280;11115;46.038;14.612;2022-08-21T10:20:53;98002.34;;;26.31;100.00
21902;BME280;11115;46.038;14.612;2022-08-21T10:24:25;97999.03;;;26.36;99.82
21902;BME280;11115;46.038;14.612;2022-08-21T10:27:46;97992.50;;;26.43;100.00
21902;BME280;11115;46.038;14.612;2022-08-21T10:30:50;97996.75;;;26.54;100.00
21902;BME280;11115;46.038;14.612;2022-08-21T10:37:18;97993.22;;;26.47;100.00
21902;BME280;11115;46.038;14.612;2022-08-21T10:40:46;97990.31;;;26.81;95.78
21902;BME280;11115;46.038;14.612;2022-08-21T10:43:55;97966.59;;;26.91;77.07
21902;BME280;11115;46.038;14.612;2022-08-21T10:50:51;97984.97;;;27.33;60.42
21902;BME280;11115;46.038;14.612;2022-08-21T10:56:43;97964.28;;;27.96;65.42
21902;BME280;11115;46.038;14.612;2022-08-21T11:06:21;97966.28;;;29.07;72.47
21902;BME280;11115;46.038;14.612;2022-08-21T11:09:14;97971.00;;;29.14;61.98
21902;BME280;11115;46.038;14.612;2022-08-21T11:18:41;97965.66;;;29.77;64.41
21902;BME280;11115;46.038;14.612;2022-08-21T11:25:38;97942.03;;;29.48;51.83
21902;BME280;11115;46.038;14.612;2022-08-21T11:28:37;97938.03;;;29.29;51.53
21902;BME280;11115;46.038;14.612;2022-08-21T11:41:05;97953.75;;;29.95;54.11
21902;BME280;11115;46.038;14.612;2022-08-21T11:50:24;97937.78;;;29.23;54.99
21902;BME280;11115;46.038;14.612;2022-08-21T11:53:40;97933.56;;;29.44;49.14
21902;BME280;11115;46.038;14.612;2022-08-21T11:56:44;97932.19;;;29.04;54.19
21902;BME280;11115;46.038;14.612;2022-08-21T12:02:56;97943.66;;;28.84;53.42
21902;BME280;11115;46.038;14.612;2022-08-21T12:05:53;97945.94;;;28.56;52.02
21902;BME280;11115;46.038;14.612;2022-08-21T12:08:45;97939.44;;;28.39;51.06
21902;BME280;11115;46.038;14.612;2022-08-21T12:12:11;97941.16;;;28.33;56.33
21902;BME280;11115;46.038;14.612;2022-08-21T12:15:24;97926.03;;;28.20;53.04
21902;BME280;11115;46.038;14.612;2022-08-21T12:18:21;97937.34;;;28.04;54.71
21902;BME280;11115;46.038;14.612;2022-08-21T12:21:28;97933.69;;;28.03;54.22
21902;BME280;11115;46.038;14.612;2022-08-21T12:24:35;97939.69;;;27.89;57.45
21902;BME280;11115;46.038;14.612;2022-08-21T12:28:07;97933.03;;;27.96;55.20
21902;BME280;11115;46.038;14.612;2022-08-21T12:30:53;97939.25;;;27.91;53.94
21902;BME280;11115;46.038;14.612;2022-08-21T12:33:41;97936.63;;;28.00;55.29
21902;BME280;11115;46.038;14.612;2022-08-21T12:36:46;97939.91;;;27.98;55.07
21902;BME280;11115;46.038;14.612;2022-08-21T12:39:44;97932.75;;;27.90;55.94
21902;BME280;11115;46.038;14.612;2022-08-21T12:42:39;97935.91;;;27.52;54.89
21902;BME280;11115;46.038;14.612;2022-08-21T12:45:40;97935.44;;;27.58;58.17
21902;BME280;11115;46.038;14.612;2022-08-21T12:48:51;97934.38;;;27.48;57.96
21902;BME280;11115;46.038;14.612;2022-08-21T12:52:24;97938.91;;;27.45;63.17
21902;BME280;11115;46.038;14.612;2022-08-21T12:55:15;97935.00;;;27.36;62.12
21902;BME280;11115;46.038;14.612;2022-08-21T12:58:05;97931.53;;;27.05;57.69
21902;BME280;11115;46.038;14.612;2022-08-21T13:01:20;97929.38;;;27.12;58.79
21902;BME280;11115;46.038;14.612;2022-08-21T13:04:16;97928.91;;;26.90;56.92
21902;BME280;11115;46.038;14.612;2022-08-21T13:07:09;97920.56;;;27.07;60.47
21902;BME280;11115;46.038;14.612;2022-08-21T13:10:14;97921.72;;;27.09;58.93
21902;BME280;11115;46.038;14.612;2022-08-21T13:13:22;97926.53;;;27.12;60.41
21902;BME280;11115;46.038;14.612;2022-08-21T13:16:28;97917.00;;;27.03;100.00
21902;BME280;11115;46.038;14.612;2022-08-21T13:19:17;97914.78;;;26.87;64.95
21902;BME280;11115;46.038;14.612;2022-08-21T13:22:12;97919.41;;;26.77;100.00
21902;BME280;11115;46.038;14.612;2022-08-21T13:25:01;97927.06;;;26.80;100.00
21902;BME280;11115;46.038;14.612;2022-08-21T13:28:05;97919.41;;;26.77;100.00
21902;BME280;11115;46.038;14.612;2022-08-21T13:30:56;97921.34;;;26.57;100.00
21902;BME280;11115;46.038;14.612;2022-08-21T13:33:48;97923.66;;;26.66;98.92
21902;BME280;11115;46.038;14.612;2022-08-21T13:36:41;97919.06;;;26.48;90.36
21902;BME280;11115;46.038;14.612;2022-08-21T13:39:27;97927.03;;;26.57;100.00
21902;BME280;11115;46.038;14.612;2022-08-21T13:42:17;97924.25;;;26.53;100.00
21902;BME280;11115;46.038;14.612;2022-08-21T13:45:23;97933.25;;;26.48;100.00
21902;BME280;11115;46.038;14.612;2022-08-21T13:48:13;97918.88;;;26.32;100.00
21902;BME280;11115;46.038;14.612;2022-08-21T13:51:11;97929.41;;;26.31;100.00
21902;BME280;11115;46.038;14.612;2022-08-21T13:54:13;97930.91;;;26.13;100.00
21902;BME280;11115;46.038;14.612;2022-08-21T13:56:59;97937.78;;;26.12;100.00
21902;BME280;11115;46.038;14.612;2022-08-21T13:59:47;97936.66;;;26.06;90.30
21902;BME280;11115;46.038;14.612;2022-08-21T14:02:39;97941.13;;;26.07;99.52
21902;BME280;11115;46.038;14.612;2022-08-21T14:05:36;97935.44;;;26.07;100.00
21902;BME280;11115;46.038;14.612;2022-08-21T14:08:33;97937.75;;;26.15;100.00
21902;BME280;11115;46.038;14.612;2022-08-21T14:11:22;97943.47;;;26.12;100.00
21902;BME280;11115;46.038;14.612;2022-08-21T14:14:27;97937.53;;;26.29;100.00
21902;BME280;11115;46.038;14.612;2022-08-21T14:17:27;97940.44;;;26.26;84.17
21902;BME280;11115;46.038;14.612;2022-08-21T14:20:28;97946.53;;;26.24;99.18
21902;BME280;11115;46.038;14.612;2022-08-21T14:23:26;97952.22;;;26.21;93.70
21902;BME280;11115;46.038;14.612;2022-08-21T14:26:18;97943.16;;;26.06;76.27
21902;BME280;11115;46.038;14.612;2022-08-21T14:29:08;97948.81;;;26.06;100.00
21902;BME280;11115;46.038;14.612;2022-08-21T14:31:57;97947.06;;;25.85;100.00
21902;BME280;11115;46.038;14.612;2022-08-21T14:34:45;97942.94;;;25.90;100.00
21902;BME280;11115;46.038;14.612;2022-08-21T14:37:33;97941.91;;;26.07;100.00
21902;BME280;11115;46.038;14.612;2022-08-21T14:40:21;97934.47;;;26.17;100.00
21902;BME280;11115;46.038;14.612;2022-08-21T14:43:08;97935.91;;;26.01;98.23
21902;BME280;11115;46.038;14.612;2022-08-21T14:46:01;97929.00;;;26.02;98.94
21902;BME280;11115;46.038;14.612;2022-08-21T14:48:49;97929.28;;;26.12;100.00
21902;BME280;11115;46.038;14.612;2022-08-21T14:51:35;97920.59;;;26.26;100.00
21902;BME280;11115;46.038;14.612;2022-08-21T14:54:29;97919.38;;;27.28;100.00
21902;BME280;11115;46.038;14.612;2022-08-21T14:57:17;97920.47;;;26.87;77.10
21902;BME280;11115;46.038;14.612;2022-08-21T15:00:08;97917.84;;;26.49;79.55
21902;BME280;11115;46.038;14.612;2022-08-21T15:03:01;97906.06;;;26.24;100.00
21902;BME280;11115;46.038;14.612;2022-08-21T15:05:50;97908.94;;;25.90;81.14
21902;BME280;11115;46.038;14.612;2022-08-21T15:08:39;97907.28;;;25.92;96.78
21902;BME280;11115;46.038;14.612;2022-08-21T15:11:30;97901.50;;;25.99;70.67
21902;BME280;11115;46.038;14.612;2022-08-21T15:14:24;97897.63;;;25.90;67.70
21902;BME280;11115;46.038;14.612;2022-08-21T15:17:14;97896.88;;;25.82;78.50
21902;BME280;11115;46.038;14.612;2022-08-21T15:20:03;97892.63;;;25.67;74.40
21902;BME280;11115;46.038;14.612;2022-08-21T15:22:56;97877.69;;;25.63;79.16
21902;BME280;11115;46.038;14.612;2022-08-21T15:25:46;97870.69;;;25.40;86.49
21902;BME280;11115;46.038;14.612;2022-08-21T15:28:38;97875.91;;;25.46;86.29
21902;BME280;11115;46.038;14.612;2022-08-21T15:31:26;97878.78;;;25.38;81.54
21902;BME280;11115;46.038;14.612;2022-08-21T15:34:16;97875.59;;;25.36;89.66
21902;BME280;11115;46.038;14.612;2022-08-21T15:37:09;97867.81;;;25.44;100.00
21902;BME280;11115;46.038;14.612;2022-08-21T15:39:55;97860.22;;;25.37;99.29
21902;BME280;11115;46.038;14.612;2022-08-21T15:42:42;97857.41;;;25.34;100.00
21902;BME280;11115;46.038;14.612;2022-08-21T15:45:32;97857.53;;;25.23;100.00
21902;BME280;11115;46.038;14.612;2022-08-21T15:48:22;97861.72;;;25.11;100.00
21902;BME280;11115;46.038;14.612;2022-08-21T15:51:14;97858.13;;;25.07;100.00
21902;BME280;11115;46.038;14.612;2022-08-21T15:54:10;97860.16;;;25.07;100.00
21902;BME280;11115;46.038;14.612;2022-08-21T15:56:56;97860.97;;;25.07;100.00
21902;BME280;11115;46.038;14.612;2022-08-21T15:59:46;97855.00;;;24.95;97.91
21902;BME280;11115;46.038;14.612;2022-08-21T16:02:56;97863.06;;;24.96;100.00
21902;BME280;11115;46.038;14.612;2022-08-21T16:05:49;97852.69;;;24.82;100.00